TimeAKDT,TemperatureF,Dew PointF,Humidity,Sea Level PressureIn,VisibilityMPH,Wind Direction,Wind SpeedMPH,Gust SpeedMPH,PrecipitationIn,Events,Conditions,WindDirDegrees,DateUTC
12:16 AM,69.8,51.8,53,29.83,10.0,Calm,Calm,-,N/A,,Clear,0,2013-06-20 08:16:00
12:36 AM,66.2,51.8,60,29.84,10.0,Calm,Calm,-,N/A,,Clear,0,2013-06-20 08:36:00
12:56 AM,66.2,51.8,60,29.84,9.0,Calm,Calm,-,N/A,,Clear,0,2013-06-20 08:56:00
1:16 AM,64.4,48.2,56,29.84,10.0,Calm,Calm,-,N/A,,Clear,0,2013-06-20 09:16:00
1:36 AM,64.4,51.8,64,29.84,8.0,Calm,Calm,-,N/A,,Partly Cloudy,0,2013-06-20 09:36:00
1:56 AM,62.6,51.8,68,29.84,2.5,Calm,Calm,-,N/A,,Partly Cloudy,0,2013-06-20 09:56:00
2:16 AM,62.6,51.8,68,29.84,10.0,Calm,Calm,-,N/A,,Clear,0,2013-06-20 10:16:00
2:36 AM,62.6,51.8,68,29.84,10.0,Calm,Calm,-,N/A,,Clear,0,2013-06-20 10:36:00
2:56 AM,62.6,51.8,68,29.84,10.0,Calm,Calm,-,N/A,,Clear,0,2013-06-20 10:56:00
3:16 AM,60.8,51.8,72,29.83,7.0,Calm,Calm,-,N/A,,Partly Cloudy,0,2013-06-20 11:16:00
3:36 AM,59.0,50.0,72,29.83,10.0,Calm,Calm,-,N/A,,Partly Cloudy,0,2013-06-20 11:36:00
3:56 AM,60.8,51.8,72,29.83,10.0,Calm,Calm,-,N/A,,Clear,0,2013-06-20 11:56:00
4:16 AM,60.8,51.8,72,29.83,10.0,Calm,Calm,-,N/A,,Clear,0,2013-06-20 12:16:00
4:36 AM,60.8,50.0,68,29.83,10.0,Calm,Calm,-,N/A,,Partly Cloudy,0,2013-06-20 12:36:00
4:56 AM,62.6,50.0,63,29.83,10.0,Calm,Calm,-,N/A,,Clear,0,2013-06-20 12:56:00
5:16 AM,62.6,50.0,63,29.83,10.0,Calm,Calm,-,N/A,,Clear,0,2013-06-20 13:16:00
5:36 AM,62.6,50.0,63,29.83,10.0,Calm,Calm,-,N/A,,Clear,0,2013-06-20 13:36:00
5:56 AM,62.6,48.2,59,29.83,10.0,Calm,Calm,-,N/A,,Clear,0,2013-06-20 13:56:00
6:16 AM,62.6,50.0,63,29.83,10.0,Calm,Calm,-,N/A,,Clear,0,2013-06-20 14:16:00
6:36 AM,62.6,48.2,59,29.84,10.0,Calm,Calm,-,N/A,,Clear,0,2013-06-20 14:36:00
6:56 AM,64.4,48.2,56,29.84,10.0,Calm,Calm,-,N/A,,Clear,0,2013-06-20 14:56:00
7:16 AM,66.2,48.2,52,29.84,10.0,Calm,Calm,-,N/A,,Clear,0,2013-06-20 15:16:00
7:36 AM,69.8,50.0,49,29.84,10.0,Calm,Calm,-,N/A,,Clear,0,2013-06-20 15:36:00
7:56 AM,69.8,50.0,49,29.84,10.0,Calm,Calm,-,N/A,,Clear,0,2013-06-20 15:56:00
8:16 AM,69.8,51.8,53,29.85,10.0,Calm,Calm,-,N/A,,Clear,0,2013-06-20 16:16:00
8:36 AM,69.8,51.8,53,29.85,10.0,Calm,Calm,-,N/A,,Clear,0,2013-06-20 16:36:00
8:56 AM,71.6,51.8,50,29.85,10.0,Calm,Calm,-,N/A,,Clear,0,2013-06-20 16:56:00
9:16 AM,71.6,51.8,50,29.85,10.0,Calm,Calm,-,N/A,,Clear,0,2013-06-20 17:16:00
9:36 AM,73.4,51.8,47,29.85,10.0,Calm,Calm,-,N/A,,Clear,0,2013-06-20 17:36:00
9:56 AM,75.2,51.8,44,29.85,10.0,Calm,Calm,-,N/A,,Clear,0,2013-06-20 17:56:00
10:16 AM,75.2,51.8,44,29.85,10.0,Calm,Calm,-,N/A,,Clear,0,2013-06-20 18:16:00
10:36 AM,77.0,50.0,39,29.85,10.0,Calm,Calm,-,N/A,,Clear,0,2013-06-20 18:36:00
10:56 AM,78.8,50.0,36,29.84,10.0,Calm,Calm,-,N/A,,Clear,0,2013-06-20 18:56:00
11:16 AM,78.8,51.8,39,29.84,10.0,Calm,Calm,-,N/A,,Clear,0,2013-06-20 19:16:00
11:36 AM,80.6,51.8,37,29.84,10.0,SSW,4.6,-,N/A,,Clear,200,2013-06-20 19:36:00
11:56 AM,80.6,50.0,34,29.84,10.0,WSW,3.5,-,N/A,,Clear,240,2013-06-20 19:56:00
12:16 PM,82.4,50.0,32,29.84,10.0,South,4.6,-,N/A,,Clear,180,2013-06-20 20:16:00
12:36 PM,82.4,48.2,30,29.84,10.0,WSW,3.5,-,N/A,,Clear,240,2013-06-20 20:36:00
12:56 PM,82.4,48.2,30,29.84,10.0,South,3.5,-,N/A,,Clear,190,2013-06-20 20:56:00
1:16 PM,82.4,48.2,30,29.83,10.0,Calm,Calm,-,N/A,,Clear,0,2013-06-20 21:16:00
1:36 PM,84.2,46.4,27,29.83,10.0,SSW,5.8,-,N/A,,Clear,210,2013-06-20 21:36:00
1:56 PM,84.2,46.4,27,29.83,10.0,South,3.5,-,N/A,,Clear,180,2013-06-20 21:56:00
2:16 PM,84.2,44.6,25,29.82,10.0,Calm,Calm,-,N/A,,Clear,0,2013-06-20 22:16:00
2:36 PM,84.2,44.6,25,29.82,10.0,Calm,Calm,-,N/A,,Clear,0,2013-06-20 22:36:00
2:56 PM,86.0,44.6,23,29.82,10.0,South,3.5,-,N/A,,Clear,190,2013-06-20 22:56:00
3:16 PM,86.0,44.6,23,29.81,10.0,South,4.6,-,N/A,,Clear,170,2013-06-20 23:16:00
3:36 PM,87.8,44.6,22,29.81,10.0,SE,3.5,-,N/A,,Clear,140,2013-06-20 23:36:00
3:56 PM,86.0,44.6,23,29.81,10.0,Calm,Calm,-,N/A,,Clear,0,2013-06-20 23:56:00
4:16 PM,84.2,42.8,23,29.80,10.0,West,4.6,-,N/A,,Clear,270,2013-06-21 00:16:00
4:36 PM,86.0,44.6,23,29.80,10.0,WSW,3.5,-,N/A,,Clear,240,2013-06-21 00:36:00
4:56 PM,86.0,42.8,22,29.79,10.0,Calm,Calm,-,N/A,,Clear,0,2013-06-21 00:56:00
5:16 PM,87.8,42.8,21,29.79,10.0,SSW,4.6,-,N/A,,Clear,210,2013-06-21 01:16:00
5:36 PM,86.0,42.8,22,29.78,10.0,Calm,Calm,-,N/A,,Clear,0,2013-06-21 01:36:00
5:56 PM,84.2,42.8,23,29.78,10.0,Calm,Calm,-,N/A,,Clear,0,2013-06-21 01:56:00
6:16 PM,84.2,42.8,23,29.78,10.0,Calm,Calm,-,N/A,,Clear,0,2013-06-21 02:16:00
6:36 PM,84.2,42.8,23,29.78,10.0,Calm,Calm,-,N/A,,Partly Cloudy,0,2013-06-21 02:36:00
6:56 PM,84.2,44.6,25,29.78,10.0,South,3.5,-,N/A,,Mostly Cloudy,190,2013-06-21 02:56:00
7:16 PM,82.4,48.2,30,29.78,10.0,Calm,Calm,-,N/A,,Mostly Cloudy,0,2013-06-21 03:16:00
7:36 PM,82.4,48.2,30,29.78,10.0,Calm,Calm,-,N/A,,Overcast,0,2013-06-21 03:36:00
7:56 PM,78.8,51.8,39,29.78,10.0,Calm,Calm,-,N/A,,Scattered Clouds,0,2013-06-21 03:56:00
8:16 PM,77.0,48.2,36,29.78,10.0,Calm,Calm,-,N/A,,Scattered Clouds,0,2013-06-21 04:16:00
8:36 PM,75.2,51.8,44,29.77,10.0,Calm,Calm,-,N/A,,Scattered Clouds,0,2013-06-21 04:36:00
8:56 PM,75.2,50.0,41,29.77,10.0,Calm,Calm,-,N/A,,Scattered Clouds,0,2013-06-21 04:56:00
9:16 PM,75.2,51.8,44,29.78,10.0,Calm,Calm,-,N/A,,Clear,0,2013-06-21 05:16:00
9:36 PM,77.0,48.2,36,29.78,10.0,SE,5.8,-,N/A,,Mostly Cloudy,130,2013-06-21 05:36:00
9:56 PM,78.8,46.4,32,29.79,10.0,Calm,Calm,-,N/A,,Overcast,0,2013-06-21 05:56:00
10:16 PM,75.2,48.2,38,29.79,10.0,Calm,Calm,-,N/A,,Scattered Clouds,0,2013-06-21 06:16:00
10:36 PM,73.4,48.2,41,29.79,10.0,Calm,Calm,-,N/A,,Mostly Cloudy,0,2013-06-21 06:36:00
10:56 PM,71.6,48.2,43,29.79,10.0,Calm,Calm,-,N/A,,Overcast,0,2013-06-21 06:56:00
11:16 PM,69.8,48.2,46,29.79,10.0,Calm,Calm,-,N/A,,Overcast,0,2013-06-21 07:16:00
11:36 PM,69.8,50.0,49,29.79,10.0,Calm,Calm,-,N/A,,Overcast,0,2013-06-21 07:36:00
11:56 PM,69.8,50.0,49,29.79,10.0,Calm,Calm,-,N/A,,Overcast,0,2013-06-21 07:56:00